sensor_id;sensor_type;location;lat;lon;timestamp;P1;durP1;ratioP1;P2;durP2;ratioP2
12880;SDS011;6508;53.786;9.996;2023-10-08T00:00:33;0.00;;;0.00;;
12880;SDS011;6508;53.786;9.996;2023-10-08T00:03:13;0.10;;;0.10;;
12880;SDS011;6508;53.786;9.996;2023-10-08T00:05:41;0.03;;;0.03;;
12880;SDS011;6508;53.786;9.996;2023-10-08T00:08:09;0.00;;;0.00;;
12880;SDS011;6508;53.786;9.996;2023-10-08T00:10:38;0.00;;;0.00;;
12880;SDS011;6508;53.786;9.996;2023-10-08T00:13:07;0.00;;;0.00;;
12880;SDS011;6508;53.786;9.996;2023-10-08T00:15:36;0.00;;;0.00;;
12880;SDS011;6508;53.786;9.996;2023-10-08T00:18:04;0.00;;;0.00;;
12880;SDS011;6508;53.786;9.996;2023-10-08T00:20:32;0.00;;;0.00;;
12880;SDS011;6508;53.786;9.996;2023-10-08T00:23:08;0.00;;;0.00;;
12880;SDS011;6508;53.786;9.996;2023-10-08T00:25:38;0.00;;;0.00;;
12880;SDS011;6508;53.786;9.996;2023-10-08T00:28:07;0.00;;;0.00;;
12880;SDS011;6508;53.786;9.996;2023-10-08T00:30:39;0.80;;;0.52;;
12880;SDS011;6508;53.786;9.996;2023-10-08T00:33:08;0.52;;;0.52;;
12880;SDS011;6508;53.786;9.996;2023-10-08T00:35:38;0.00;;;0.00;;
12880;SDS011;6508;53.786;9.996;2023-10-08T00:38:08;0.00;;;0.00;;
12880;SDS011;6508;53.786;9.996;2023-10-08T00:40:42;0.00;;;0.00;;
12880;SDS011;6508;53.786;9.996;2023-10-08T00:45:55;0.00;;;0.00;;
12880;SDS011;6508;53.786;9.996;2023-10-08T00:48:25;0.00;;;0.00;;
12880;SDS011;6508;53.786;9.996;2023-10-08T00:50:55;0.00;;;0.00;;
12880;SDS011;6508;53.786;9.996;2023-10-08T00:53:42;0.00;;;0.00;;
12880;SDS011;6508;53.786;9.996;2023-10-08T00:56:12;1.08;;;1.08;;
12880;SDS011;6508;53.786;9.996;2023-10-08T00:58:45;0.00;;;0.00;;
12880;SDS011;6508;53.786;9.996;2023-10-08T01:01:16;0.00;;;0.00;;
12880;SDS011;6508;53.786;9.996;2023-10-08T01:03:46;0.00;;;0.00;;
12880;SDS011;6508;53.786;9.996;2023-10-08T01:06:17;0.00;;;0.00;;
12880;SDS011;6508;53.786;9.996;2023-10-08T01:08:46;0.00;;;0.00;;
12880;SDS011;6508;53.786;9.996;2023-10-08T01:11:21;0.00;;;0.00;;
12880;SDS011;6508;53.786;9.996;2023-10-08T01:14:02;0.00;;;0.00;;
12880;SDS011;6508;53.786;9.996;2023-10-08T01:16:33;0.00;;;0.00;;
12880;SDS011;6508;53.786;9.996;2023-10-08T01:19:01;0.00;;;0.00;;
12880;SDS011;6508;53.786;9.996;2023-10-08T01:21:29;0.00;;;0.00;;
12880;SDS011;6508;53.786;9.996;2023-10-08T01:24:03;0.00;;;0.00;;
12880;SDS011;6508;53.786;9.996;2023-10-08T01:26:32;0.00;;;0.00;;
12880;SDS011;6508;53.786;9.996;2023-10-08T01:29:01;0.00;;;0.00;;
12880;SDS011;6508;53.786;9.996;2023-10-08T01:31:34;0.00;;;0.00;;
12880;SDS011;6508;53.786;9.996;2023-10-08T01:34:01;0.00;;;0.00;;
12880;SDS011;6508;53.786;9.996;2023-10-08T01:36:30;0.00;;;0.00;;
12880;SDS011;6508;53.786;9.996;2023-10-08T01:38:59;0.00;;;0.00;;
12880;SDS011;6508;53.786;9.996;2023-10-08T01:41:30;0.00;;;0.00;;
12880;SDS011;6508;53.786;9.996;2023-10-08T01:43:58;0.00;;;0.00;;
12880;SDS011;6508;53.786;9.996;2023-10-08T01:46:25;0.00;;;0.00;;
12880;SDS011;6508;53.786;9.996;2023-10-08T01:48:54;0.00;;;0.00;;
12880;SDS011;6508;53.786;9.996;2023-10-08T01:51:30;0.00;;;0.00;;
12880;SDS011;6508;53.786;9.996;2023-10-08T01:54:06;0.00;;;0.00;;
12880;SDS011;6508;53.786;9.996;2023-10-08T01:56:39;0.00;;;0.00;;
12880;SDS011;6508;53.786;9.996;2023-10-08T01:59:09;0.00;;;0.00;;
12880;SDS011;6508;53.786;9.996;2023-10-08T02:01:38;0.00;;;0.00;;
12880;SDS011;6508;53.786;9.996;2023-10-08T02:04:06;0.00;;;0.00;;
12880;SDS011;6508;53.786;9.996;2023-10-08T02:06:36;0.00;;;0.00;;
12880;SDS011;6508;53.786;9.996;2023-10-08T02:09:04;0.00;;;0.00;;
12880;SDS011;6508;53.786;9.996;2023-10-08T02:11:42;0.00;;;0.00;;
12880;SDS011;6508;53.786;9.996;2023-10-08T02:14:11;0.00;;;0.00;;
12880;SDS011;6508;53.786;9.996;2023-10-08T02:16:42;0.00;;;0.00;;
12880;SDS011;6508;53.786;9.996;2023-10-08T02:19:10;0.00;;;0.00;;
12880;SDS011;6508;53.786;9.996;2023-10-08T02:21:40;0.00;;;0.00;;
12880;SDS011;6508;53.786;9.996;2023-10-08T02:24:12;0.00;;;0.00;;
12880;SDS011;6508;53.786;9.996;2023-10-08T02:26:40;0.00;;;0.00;;
12880;SDS011;6508;53.786;9.996;2023-10-08T02:29:10;0.00;;;0.00;;
12880;SDS011;6508;53.786;9.996;2023-10-08T02:31:39;0.00;;;0.00;;
12880;SDS011;6508;53.786;9.996;2023-10-08T02:34:07;0.00;;;0.00;;
12880;SDS011;6508;53.786;9.996;2023-10-08T02:36:36;0.00;;;0.00;;
12880;SDS011;6508;53.786;9.996;2023-10-08T02:39:04;0.00;;;0.00;;
12880;SDS011;6508;53.786;9.996;2023-10-08T02:41:41;0.00;;;0.00;;
12880;SDS011;6508;53.786;9.996;2023-10-08T02:44:10;0.00;;;0.00;;
12880;SDS011;6508;53.786;9.996;2023-10-08T02:46:40;0.00;;;0.00;;
12880;SDS011;6508;53.786;9.996;2023-10-08T02:49:08;0.00;;;0.00;;
12880;SDS011;6508;53.786;9.996;2023-10-08T02:51:39;0.00;;;0.00;;
12880;SDS011;6508;53.786;9.996;2023-10-08T02:54:08;0.00;;;0.00;;
12880;SDS011;6508;53.786;9.996;2023-10-08T02:56:44;0.00;;;0.00;;
12880;SDS011;6508;53.786;9.996;2023-10-08T02:59:14;0.00;;;0.00;;
12880;SDS011;6508;53.786;9.996;2023-10-08T03:01:42;0.00;;;0.00;;
12880;SDS011;6508;53.786;9.996;2023-10-08T03:04:10;0.00;;;0.00;;
12880;SDS011;6508;53.786;9.996;2023-10-08T03:06:49;0.00;;;0.00;;
12880;SDS011;6508;53.786;9.996;2023-10-08T03:09:18;0.00;;;0.00;;
12880;SDS011;6508;53.786;9.996;2023-10-08T03:11:50;0.00;;;0.00;;
12880;SDS011;6508;53.786;9.996;2023-10-08T03:14:20;0.00;;;0.00;;
12880;SDS011;6508;53.786;9.996;2023-10-08T03:16:50;0.00;;;0.00;;
12880;SDS011;6508;53.786;9.996;2023-10-08T03:19:20;0.00;;;0.00;;
12880;SDS011;6508;53.786;9.996;2023-10-08T03:21:48;0.00;;;0.00;;
12880;SDS011;6508;53.786;9.996;2023-10-08T03:24:22;0.00;;;0.00;;
12880;SDS011;6508;53.786;9.996;2023-10-08T03:27:04;0.00;;;0.00;;
12880;SDS011;6508;53.786;9.996;2023-10-08T03:29:41;0.00;;;0.00;;
12880;SDS011;6508;53.786;9.996;2023-10-08T03:32:12;0.00;;;0.00;;
12880;SDS011;6508;53.786;9.996;2023-10-08T03:34:46;0.00;;;0.00;;
12880;SDS011;6508;53.786;9.996;2023-10-08T03:37:14;0.00;;;0.00;;
12880;SDS011;6508;53.786;9.996;2023-10-08T03:39:47;0.00;;;0.00;;
12880;SDS011;6508;53.786;9.996;2023-10-08T03:42:47;0.00;;;0.00;;
12880;SDS011;6508;53.786;9.996;2023-10-08T03:45:17;0.00;;;0.00;;
12880;SDS011;6508;53.786;9.996;2023-10-08T03:47:59;0.00;;;0.00;;
12880;SDS011;6508;53.786;9.996;2023-10-08T03:50:38;0.00;;;0.00;;
12880;SDS011;6508;53.786;9.996;2023-10-08T03:53:09;0.00;;;0.00;;
12880;SDS011;6508;53.786;9.996;2023-10-08T03:55:38;0.00;;;0.00;;
12880;SDS011;6508;53.786;9.996;2023-10-08T03:58:07;0.40;;;0.40;;
12880;SDS011;6508;53.786;9.996;2023-10-08T04:00:39;0.00;;;0.00;;
12880;SDS011;6508;53.786;9.996;2023-10-08T04:03:12;0.00;;;0.00;;
12880;SDS011;6508;53.786;9.996;2023-10-08T04:05:50;0.00;;;0.00;;
12880;SDS011;6508;53.786;9.996;2023-10-08T04:08:30;0.00;;;0.00;;
12880;SDS011;6508;53.786;9.996;2023-10-08T04:11:14;0.00;;;0.00;;
12880;SDS011;6508;53.786;9.996;2023-10-08T04:13:57;0.00;;;0.00;;
12880;SDS011;6508;53.786;9.996;2023-10-08T04:16:28;0.00;;;0.00;;
12880;SDS011;6508;53.786;9.996;2023-10-08T04:18:57;0.00;;;0.00;;
12880;SDS011;6508;53.786;9.996;2023-10-08T04:21:29;0.00;;;0.00;;
12880;SDS011;6508;53.786;9.996;2023-10-08T04:24:00;0.00;;;0.00;;
12880;SDS011;6508;53.786;9.996;2023-10-08T04:26:34;0.00;;;0.00;;
12880;SDS011;6508;53.786;9.996;2023-10-08T04:29:02;0.00;;;0.00;;
12880;SDS011;6508;53.786;9.996;2023-10-08T04:31:35;0.45;;;0.45;;
12880;SDS011;6508;53.786;9.996;2023-10-08T04:34:09;0.00;;;0.00;;
12880;SDS011;6508;53.786;9.996;2023-10-08T04:36:42;0.00;;;0.00;;
12880;SDS011;6508;53.786;9.996;2023-10-08T04:39:11;0.00;;;0.00;;
12880;SDS011;6508;53.786;9.996;2023-10-08T04:41:41;0.00;;;0.00;;
12880;SDS011;6508;53.786;9.996;2023-10-08T04:44:10;0.00;;;0.00;;
12880;SDS011;6508;53.786;9.996;2023-10-08T04:46:42;0.00;;;0.00;;
12880;SDS011;6508;53.786;9.996;2023-10-08T04:49:19;0.00;;;0.00;;
12880;SDS011;6508;53.786;9.996;2023-10-08T04:51:54;0.00;;;0.00;;
12880;SDS011;6508;53.786;9.996;2023-10-08T04:54:24;0.08;;;0.08;;
12880;SDS011;6508;53.786;9.996;2023-10-08T04:56:57;0.00;;;0.00;;
12880;SDS011;6508;53.786;9.996;2023-10-08T04:59:25;0.00;;;0.00;;
12880;SDS011;6508;53.786;9.996;2023-10-08T05:02:01;0.00;;;0.00;;
12880;SDS011;6508;53.786;9.996;2023-10-08T05:04:47;0.00;;;0.00;;
12880;SDS011;6508;53.786;9.996;2023-10-08T05:07:33;0.00;;;0.00;;
12880;SDS011;6508;53.786;9.996;2023-10-08T05:10:27;0.00;;;0.00;;
12880;SDS011;6508;53.786;9.996;2023-10-08T05:13:11;0.00;;;0.00;;
12880;SDS011;6508;53.786;9.996;2023-10-08T05:15:56;0.00;;;0.00;;
12880;SDS011;6508;53.786;9.996;2023-10-08T05:18:47;0.00;;;0.00;;
12880;SDS011;6508;53.786;9.996;2023-10-08T05:21:35;0.00;;;0.00;;
12880;SDS011;6508;53.786;9.996;2023-10-08T05:24:18;0.00;;;0.00;;
12880;SDS011;6508;53.786;9.996;2023-10-08T05:26:54;0.00;;;0.00;;
12880;SDS011;6508;53.786;9.996;2023-10-08T05:29:47;0.00;;;0.00;;
12880;SDS011;6508;53.786;9.996;2023-10-08T05:32:39;0.00;;;0.00;;
12880;SDS011;6508;53.786;9.996;2023-10-08T05:35:34;0.00;;;0.00;;
12880;SDS011;6508;53.786;9.996;2023-10-08T05:38:21;0.00;;;0.00;;
12880;SDS011;6508;53.786;9.996;2023-10-08T05:40:51;0.00;;;0.00;;
12880;SDS011;6508;53.786;9.996;2023-10-08T05:43:31;0.00;;;0.00;;
12880;SDS011;6508;53.786;9.996;2023-10-08T05:46:22;0.00;;;0.00;;
12880;SDS011;6508;53.786;9.996;2023-10-08T05:49:07;0.00;;;0.00;;
12880;SDS011;6508;53.786;9.996;2023-10-08T05:51:54;0.00;;;0.00;;
12880;SDS011;6508;53.786;9.996;2023-10-08T05:54:51;0.00;;;0.00;;
12880;SDS011;6508;53.786;9.996;2023-10-08T05:57:42;0.00;;;0.00;;
12880;SDS011;6508;53.786;9.996;2023-10-08T06:00:18;0.00;;;0.00;;
12880;SDS011;6508;53.786;9.996;2023-10-08T06:03:00;0.00;;;0.00;;
12880;SDS011;6508;53.786;9.996;2023-10-08T06:05:36;0.00;;;0.00;;
12880;SDS011;6508;53.786;9.996;2023-10-08T06:08:31;0.00;;;0.00;;
12880;SDS011;6508;53.786;9.996;2023-10-08T06:11:16;0.00;;;0.00;;
12880;SDS011;6508;53.786;9.996;2023-10-08T06:13:58;0.00;;;0.00;;
12880;SDS011;6508;53.786;9.996;2023-10-08T06:16:27;0.00;;;0.00;;
12880;SDS011;6508;53.786;9.996;2023-10-08T06:19:10;0.00;;;0.00;;
12880;SDS011;6508;53.786;9.996;2023-10-08T06:21:38;0.00;;;0.00;;
12880;SDS011;6508;53.786;9.996;2023-10-08T06:24:07;0.00;;;0.00;;
12880;SDS011;6508;53.786;9.996;2023-10-08T06:26:37;0.00;;;0.00;;
12880;SDS011;6508;53.786;9.996;2023-10-08T06:29:09;0.00;;;0.00;;
12880;SDS011;6508;53.786;9.996;2023-10-08T06:31:46;0.00;;;0.00;;
12880;SDS011;6508;53.786;9.996;2023-10-08T06:34:18;0.00;;;0.00;;
12880;SDS011;6508;53.786;9.996;2023-10-08T06:36:48;0.00;;;0.00;;
12880;SDS011;6508;53.786;9.996;2023-10-08T06:39:24;0.00;;;0.00;;
12880;SDS011;6508;53.786;9.996;2023-10-08T06:41:59;0.00;;;0.00;;
12880;SDS011;6508;53.786;9.996;2023-10-08T06:44:33;0.00;;;0.00;;
12880;SDS011;6508;53.786;9.996;2023-10-08T06:47:04;0.00;;;0.00;;
12880;SDS011;6508;53.786;9.996;2023-10-08T06:49:36;0.00;;;0.00;;
12880;SDS011;6508;53.786;9.996;2023-10-08T06:52:05;0.00;;;0.00;;
12880;SDS011;6508;53.786;9.996;2023-10-08T06:54:40;0.00;;;0.00;;
12880;SDS011;6508;53.786;9.996;2023-10-08T06:57:08;0.00;;;0.00;;
12880;SDS011;6508;53.786;9.996;2023-10-08T06:59:41;0.00;;;0.00;;
12880;SDS011;6508;53.786;9.996;2023-10-08T07:02:09;0.00;;;0.00;;
12880;SDS011;6508;53.786;9.996;2023-10-08T07:04:41;0.00;;;0.00;;
12880;SDS011;6508;53.786;9.996;2023-10-08T07:07:11;0.00;;;0.00;;
12880;SDS011;6508;53.786;9.996;2023-10-08T07:09:46;0.00;;;0.00;;
12880;SDS011;6508;53.786;9.996;2023-10-08T07:12:14;0.00;;;0.00;;
12880;SDS011;6508;53.786;9.996;2023-10-08T07:14:42;0.00;;;0.00;;
12880;SDS011;6508;53.786;9.996;2023-10-08T07:17:10;0.00;;;0.00;;
12880;SDS011;6508;53.786;9.996;2023-10-08T07:19:49;0.00;;;0.00;;
12880;SDS011;6508;53.786;9.996;2023-10-08T07:22:17;0.20;;;0.20;;
12880;SDS011;6508;53.786;9.996;2023-10-08T07:24:51;0.00;;;0.00;;
12880;SDS011;6508;53.786;9.996;2023-10-08T07:27:19;0.00;;;0.00;;
12880;SDS011;6508;53.786;9.996;2023-10-08T07:29:51;0.00;;;0.00;;
12880;SDS011;6508;53.786;9.996;2023-10-08T07:32:24;0.00;;;0.00;;
12880;SDS011;6508;53.786;9.996;2023-10-08T07:34:53;0.00;;;0.00;;
12880;SDS011;6508;53.786;9.996;2023-10-08T07:37:41;0.00;;;0.00;;
12880;SDS011;6508;53.786;9.996;2023-10-08T07:40:11;0.00;;;0.00;;
12880;SDS011;6508;53.786;9.996;2023-10-08T07:42:39;0.00;;;0.00;;
12880;SDS011;6508;53.786;9.996;2023-10-08T07:45:07;0.00;;;0.00;;
12880;SDS011;6508;53.786;9.996;2023-10-08T07:47:35;0.00;;;0.00;;
12880;SDS011;6508;53.786;9.996;2023-10-08T07:50:03;0.00;;;0.00;;
12880;SDS011;6508;53.786;9.996;2023-10-08T07:52:38;0.00;;;0.00;;
12880;SDS011;6508;53.786;9.996;2023-10-08T07:55:12;0.00;;;0.00;;
12880;SDS011;6508;53.786;9.996;2023-10-08T07:57:45;0.00;;;0.00;;
12880;SDS011;6508;53.786;9.996;2023-10-08T08:00:13;0.00;;;0.00;;
12880;SDS011;6508;53.786;9.996;2023-10-08T08:02:51;0.00;;;0.00;;
12880;SDS011;6508;53.786;9.996;2023-10-08T08:05:21;0.00;;;0.00;;
12880;SDS011;6508;53.786;9.996;2023-10-08T08:07:50;0.00;;;0.00;;
12880;SDS011;6508;53.786;9.996;2023-10-08T08:10:20;0.00;;;0.00;;
12880;SDS011;6508;53.786;9.996;2023-10-08T08:12:50;0.00;;;0.00;;
12880;SDS011;6508;53.786;9.996;2023-10-08T08:15:24;0.10;;;0.10;;
12880;SDS011;6508;53.786;9.996;2023-10-08T08:17:54;0.20;;;0.20;;
12880;SDS011;6508;53.786;9.996;2023-10-08T08:20:22;0.20;;;0.20;;
12880;SDS011;6508;53.786;9.996;2023-10-08T08:23:01;0.30;;;0.30;;
12880;SDS011;6508;53.786;9.996;2023-10-08T08:25:37;0.30;;;0.30;;
12880;SDS011;6508;53.786;9.996;2023-10-08T08:28:12;0.30;;;0.30;;
12880;SDS011;6508;53.786;9.996;2023-10-08T08:30:43;0.30;;;0.30;;
12880;SDS011;6508;53.786;9.996;2023-10-08T08:33:13;0.30;;;0.30;;
12880;SDS011;6508;53.786;9.996;2023-10-08T08:35:57;0.30;;;0.30;;
12880;SDS011;6508;53.786;9.996;2023-10-08T08:38:25;0.20;;;0.20;;
12880;SDS011;6508;53.786;9.996;2023-10-08T08:41:02;0.20;;;0.20;;
12880;SDS011;6508;53.786;9.996;2023-10-08T08:43:34;0.20;;;0.20;;
12880;SDS011;6508;53.786;9.996;2023-10-08T08:46:02;0.40;;;0.40;;
12880;SDS011;6508;53.786;9.996;2023-10-08T08:48:33;0.30;;;0.30;;
12880;SDS011;6508;53.786;9.996;2023-10-08T08:51:01;0.28;;;0.28;;
12880;SDS011;6508;53.786;9.996;2023-10-08T08:53:29;0.40;;;0.40;;
12880;SDS011;6508;53.786;9.996;2023-10-08T08:55:58;0.40;;;0.40;;
12880;SDS011;6508;53.786;9.996;2023-10-08T08:58:29;0.70;;;0.70;;
12880;SDS011;6508;53.786;9.996;2023-10-08T09:00:58;0.93;;;0.80;;
12880;SDS011;6508;53.786;9.996;2023-10-08T09:03:26;2.60;;;2.40;;
12880;SDS011;6508;53.786;9.996;2023-10-08T09:05:58;3.15;;;2.63;;
12880;SDS011;6508;53.786;9.996;2023-10-08T09:08:27;3.20;;;2.85;;
12880;SDS011;6508;53.786;9.996;2023-10-08T09:10:59;7.80;;;3.75;;
12880;SDS011;6508;53.786;9.996;2023-10-08T09:13:30;6.45;;;4.00;;
12880;SDS011;6508;53.786;9.996;2023-10-08T09:16:02;3.90;;;3.60;;
12880;SDS011;6508;53.786;9.996;2023-10-08T09:18:31;4.50;;;4.10;;
12880;SDS011;6508;53.786;9.996;2023-10-08T09:21:07;3.58;;;3.22;;
12880;SDS011;6508;53.786;9.996;2023-10-08T09:23:40;4.82;;;3.08;;
12880;SDS011;6508;53.786;9.996;2023-10-08T09:26:14;3.53;;;3.35;;
12880;SDS011;6508;53.786;9.996;2023-10-08T09:28:46;3.42;;;3.22;;
12880;SDS011;6508;53.786;9.996;2023-10-08T09:31:15;3.92;;;3.60;;
12880;SDS011;6508;53.786;9.996;2023-10-08T09:33:44;4.50;;;2.92;;
12880;SDS011;6508;53.786;9.996;2023-10-08T09:36:20;4.57;;;3.33;;
12880;SDS011;6508;53.786;9.996;2023-10-08T09:39:00;3.42;;;3.20;;
12880;SDS011;6508;53.786;9.996;2023-10-08T09:41:28;3.08;;;2.97;;
12880;SDS011;6508;53.786;9.996;2023-10-08T09:43:58;3.55;;;3.45;;
12880;SDS011;6508;53.786;9.996;2023-10-08T09:46:29;4.03;;;2.83;;
12880;SDS011;6508;53.786;9.996;2023-10-08T09:48:59;2.70;;;2.60;;
12880;SDS011;6508;53.786;9.996;2023-10-08T09:51:28;2.72;;;2.53;;
12880;SDS011;6508;53.786;9.996;2023-10-08T09:54:00;2.90;;;2.80;;
12880;SDS011;6508;53.786;9.996;2023-10-08T09:56:28;2.85;;;2.65;;
12880;SDS011;6508;53.786;9.996;2023-10-08T09:58:58;3.72;;;2.78;;
12880;SDS011;6508;53.786;9.996;2023-10-08T10:01:26;3.28;;;3.00;;
12880;SDS011;6508;53.786;9.996;2023-10-08T10:03:54;3.30;;;3.00;;
12880;SDS011;6508;53.786;9.996;2023-10-08T10:06:27;3.00;;;2.90;;
12880;SDS011;6508;53.786;9.996;2023-10-08T10:08:56;2.97;;;2.70;;
12880;SDS011;6508;53.786;9.996;2023-10-08T10:11:26;2.85;;;2.65;;
12880;SDS011;6508;53.786;9.996;2023-10-08T10:13:59;2.95;;;2.60;;
12880;SDS011;6508;53.786;9.996;2023-10-08T10:16:28;2.85;;;2.75;;
12880;SDS011;6508;53.786;9.996;2023-10-08T10:18:56;2.95;;;2.85;;
12880;SDS011;6508;53.786;9.996;2023-10-08T10:21:26;3.42;;;3.17;;
12880;SDS011;6508;53.786;9.996;2023-10-08T10:23:55;2.75;;;2.65;;
12880;SDS011;6508;53.786;9.996;2023-10-08T10:26:24;2.65;;;2.55;;
12880;SDS011;6508;53.786;9.996;2023-10-08T10:31:44;2.70;;;2.60;;
12880;SDS011;6508;53.786;9.996;2023-10-08T10:34:13;2.97;;;2.88;;
12880;SDS011;6508;53.786;9.996;2023-10-08T10:36:43;2.90;;;2.70;;
12880;SDS011;6508;53.786;9.996;2023-10-08T10:39:15;2.80;;;2.70;;
12880;SDS011;6508;53.786;9.996;2023-10-08T10:41:44;2.40;;;2.30;;
12880;SDS011;6508;53.786;9.996;2023-10-08T10:44:12;2.60;;;2.40;;
12880;SDS011;6508;53.786;9.996;2023-10-08T10:46:41;2.60;;;2.50;;
12880;SDS011;6508;53.786;9.996;2023-10-08T10:49:10;2.22;;;2.13;;
12880;SDS011;6508;53.786;9.996;2023-10-08T10:51:48;2.30;;;2.30;;
12880;SDS011;6508;53.786;9.996;2023-10-08T10:54:19;2.90;;;2.70;;
12880;SDS011;6508;53.786;9.996;2023-10-08T10:56:47;2.60;;;2.50;;
12880;SDS011;6508;53.786;9.996;2023-10-08T10:59:26;3.30;;;3.20;;
12880;SDS011;6508;53.786;9.996;2023-10-08T11:01:54;2.65;;;2.50;;
12880;SDS011;6508;53.786;9.996;2023-10-08T11:04:35;3.38;;;2.45;;
12880;SDS011;6508;53.786;9.996;2023-10-08T11:07:14;2.38;;;2.28;;
12880;SDS011;6508;53.786;9.996;2023-10-08T11:09:42;2.70;;;2.60;;
12880;SDS011;6508;53.786;9.996;2023-10-08T11:12:12;2.90;;;2.80;;
12880;SDS011;6508;53.786;9.996;2023-10-08T11:14:46;3.30;;;3.03;;
12880;SDS011;6508;53.786;9.996;2023-10-08T11:17:15;2.85;;;2.72;;
12880;SDS011;6508;53.786;9.996;2023-10-08T11:19:44;2.55;;;2.45;;
12880;SDS011;6508;53.786;9.996;2023-10-08T11:22:13;3.08;;;2.85;;
12880;SDS011;6508;53.786;9.996;2023-10-08T11:24:44;3.17;;;3.08;;
12880;SDS011;6508;53.786;9.996;2023-10-08T11:27:14;3.28;;;3.08;;
12880;SDS011;6508;53.786;9.996;2023-10-08T11:29:43;3.25;;;3.15;;
12880;SDS011;6508;53.786;9.996;2023-10-08T11:32:14;3.13;;;3.03;;
12880;SDS011;6508;53.786;9.996;2023-10-08T11:34:46;3.45;;;3.25;;
12880;SDS011;6508;53.786;9.996;2023-10-08T11:37:26;3.40;;;3.15;;
12880;SDS011;6508;53.786;9.996;2023-10-08T11:39:54;2.63;;;2.53;;
12880;SDS011;6508;53.786;9.996;2023-10-08T11:42:24;3.28;;;2.97;;
12880;SDS011;6508;53.786;9.996;2023-10-08T11:45:11;2.90;;;2.80;;
12880;SDS011;6508;53.786;9.996;2023-10-08T11:47:51;3.35;;;3.15;;
12880;SDS011;6508;53.786;9.996;2023-10-08T11:50:27;3.05;;;2.95;;
12880;SDS011;6508;53.786;9.996;2023-10-08T11:52:58;3.60;;;3.33;;
12880;SDS011;6508;53.786;9.996;2023-10-08T11:55:29;3.25;;;3.05;;
12880;SDS011;6508;53.786;9.996;2023-10-08T11:58:01;3.25;;;3.15;;
12880;SDS011;6508;53.786;9.996;2023-10-08T12:00:37;3.65;;;3.45;;
12880;SDS011;6508;53.786;9.996;2023-10-08T12:03:11;3.55;;;3.33;;
12880;SDS011;6508;53.786;9.996;2023-10-08T12:05:40;3.40;;;3.30;;
12880;SDS011;6508;53.786;9.996;2023-10-08T12:08:14;3.17;;;3.08;;
12880;SDS011;6508;53.786;9.996;2023-10-08T12:10:44;3.67;;;3.45;;
12880;SDS011;6508;53.786;9.996;2023-10-08T12:13:14;3.15;;;3.03;;
12880;SDS011;6508;53.786;9.996;2023-10-08T12:15:45;3.35;;;3.10;;
12880;SDS011;6508;53.786;9.996;2023-10-08T12:18:14;2.97;;;2.85;;
12880;SDS011;6508;53.786;9.996;2023-10-08T12:20:52;3.83;;;3.63;;
12880;SDS011;6508;53.786;9.996;2023-10-08T12:23:21;3.40;;;3.30;;
12880;SDS011;6508;53.786;9.996;2023-10-08T12:25:52;2.67;;;2.67;;
12880;SDS011;6508;53.786;9.996;2023-10-08T12:28:22;3.90;;;3.50;;
12880;SDS011;6508;53.786;9.996;2023-10-08T12:30:51;3.42;;;3.33;;
12880;SDS011;6508;53.786;9.996;2023-10-08T12:33:19;3.17;;;3.08;;
12880;SDS011;6508;53.786;9.996;2023-10-08T12:35:47;3.28;;;3.13;;
12880;SDS011;6508;53.786;9.996;2023-10-08T12:38:16;3.30;;;3.20;;
12880;SDS011;6508;53.786;9.996;2023-10-08T12:40:47;3.22;;;3.13;;
12880;SDS011;6508;53.786;9.996;2023-10-08T12:43:19;3.63;;;3.45;;
12880;SDS011;6508;53.786;9.996;2023-10-08T12:45:47;3.50;;;3.40;;
12880;SDS011;6508;53.786;9.996;2023-10-08T12:48:19;3.42;;;3.03;;
12880;SDS011;6508;53.786;9.996;2023-10-08T12:50:48;3.20;;;3.00;;
12880;SDS011;6508;53.786;9.996;2023-10-08T12:53:25;3.17;;;3.08;;
12880;SDS011;6508;53.786;9.996;2023-10-08T12:56:00;2.78;;;2.67;;
12880;SDS011;6508;53.786;9.996;2023-10-08T12:58:34;3.25;;;3.15;;
12880;SDS011;6508;53.786;9.996;2023-10-08T13:01:08;3.47;;;3.10;;
12880;SDS011;6508;53.786;9.996;2023-10-08T13:03:37;3.33;;;3.22;;
12880;SDS011;6508;53.786;9.996;2023-10-08T13:06:08;3.30;;;3.20;;
12880;SDS011;6508;53.786;9.996;2023-10-08T13:08:42;3.03;;;2.92;;
12880;SDS011;6508;53.786;9.996;2023-10-08T13:11:10;3.42;;;3.22;;
12880;SDS011;6508;53.786;9.996;2023-10-08T13:13:37;3.30;;;3.20;;
12880;SDS011;6508;53.786;9.996;2023-10-08T13:16:05;3.17;;;3.08;;
12880;SDS011;6508;53.786;9.996;2023-10-08T13:18:35;3.28;;;3.08;;
12880;SDS011;6508;53.786;9.996;2023-10-08T13:21:04;3.10;;;3.00;;
12880;SDS011;6508;53.786;9.996;2023-10-08T13:23:33;3.60;;;3.50;;
12880;SDS011;6508;53.786;9.996;2023-10-08T13:26:04;3.92;;;3.63;;
12880;SDS011;6508;53.786;9.996;2023-10-08T13:28:34;3.33;;;3.22;;
12880;SDS011;6508;53.786;9.996;2023-10-08T13:31:02;3.22;;;3.13;;
12880;SDS011;6508;53.786;9.996;2023-10-08T13:33:37;3.50;;;3.40;;
12880;SDS011;6508;53.786;9.996;2023-10-08T13:36:06;3.70;;;3.50;;
12880;SDS011;6508;53.786;9.996;2023-10-08T13:38:44;4.22;;;4.00;;
12880;SDS011;6508;53.786;9.996;2023-10-08T13:41:15;3.65;;;3.47;;
12880;SDS011;6508;53.786;9.996;2023-10-08T13:43:43;3.42;;;3.33;;
12880;SDS011;6508;53.786;9.996;2023-10-08T13:46:12;3.45;;;3.35;;
12880;SDS011;6508;53.786;9.996;2023-10-08T13:48:42;3.20;;;3.10;;
12880;SDS011;6508;53.786;9.996;2023-10-08T13:51:13;3.30;;;3.20;;
12880;SDS011;6508;53.786;9.996;2023-10-08T13:53:41;3.60;;;3.50;;
12880;SDS011;6508;53.786;9.996;2023-10-08T13:56:12;3.47;;;3.30;;
12880;SDS011;6508;53.786;9.996;2023-10-08T13:58:41;3.33;;;3.17;;
12880;SDS011;6508;53.786;9.996;2023-10-08T14:01:13;3.72;;;3.60;;
12880;SDS011;6508;53.786;9.996;2023-10-08T14:03:47;3.83;;;3.72;;
12880;SDS011;6508;53.786;9.996;2023-10-08T14:06:19;3.95;;;3.65;;
12880;SDS011;6508;53.786;9.996;2023-10-08T14:08:48;3.83;;;3.58;;
12880;SDS011;6508;53.786;9.996;2023-10-08T14:11:18;3.70;;;3.50;;
12880;SDS011;6508;53.786;9.996;2023-10-08T14:13:52;3.80;;;3.60;;
12880;SDS011;6508;53.786;9.996;2023-10-08T14:16:22;3.50;;;3.40;;
12880;SDS011;6508;53.786;9.996;2023-10-08T14:18:55;3.65;;;3.45;;
12880;SDS011;6508;53.786;9.996;2023-10-08T14:21:26;3.60;;;3.50;;
12880;SDS011;6508;53.786;9.996;2023-10-08T14:23:57;3.88;;;3.78;;
12880;SDS011;6508;53.786;9.996;2023-10-08T14:26:29;3.70;;;3.60;;
12880;SDS011;6508;53.786;9.996;2023-10-08T14:29:03;3.65;;;3.45;;
12880;SDS011;6508;53.786;9.996;2023-10-08T14:31:38;4.97;;;4.50;;
12880;SDS011;6508;53.786;9.996;2023-10-08T14:34:06;4.47;;;4.28;;
12880;SDS011;6508;53.786;9.996;2023-10-08T14:36:46;4.60;;;4.40;;
12880;SDS011;6508;53.786;9.996;2023-10-08T14:39:32;5.65;;;5.45;;
12880;SDS011;6508;53.786;9.996;2023-10-08T14:42:17;4.60;;;4.45;;
12880;SDS011;6508;53.786;9.996;2023-10-08T14:45:04;5.55;;;5.30;;
12880;SDS011;6508;53.786;9.996;2023-10-08T14:47:37;5.35;;;5.15;;
12880;SDS011;6508;53.786;9.996;2023-10-08T14:50:05;4.35;;;4.15;;
12880;SDS011;6508;53.786;9.996;2023-10-08T14:52:42;3.58;;;3.47;;
12880;SDS011;6508;53.786;9.996;2023-10-08T14:55:10;3.90;;;3.70;;
12880;SDS011;6508;53.786;9.996;2023-10-08T14:57:40;4.13;;;4.03;;
12880;SDS011;6508;53.786;9.996;2023-10-08T15:00:10;4.80;;;4.50;;
12880;SDS011;6508;53.786;9.996;2023-10-08T15:02:38;5.35;;;5.13;;
12880;SDS011;6508;53.786;9.996;2023-10-08T15:05:07;4.63;;;4.40;;
12880;SDS011;6508;53.786;9.996;2023-10-08T15:07:37;4.60;;;4.40;;
12880;SDS011;6508;53.786;9.996;2023-10-08T15:10:05;4.38;;;4.22;;
12880;SDS011;6508;53.786;9.996;2023-10-08T15:12:35;3.58;;;3.38;;
12880;SDS011;6508;53.786;9.996;2023-10-08T15:15:04;3.55;;;3.40;;
12880;SDS011;6508;53.786;9.996;2023-10-08T15:17:41;3.90;;;3.80;;
12880;SDS011;6508;53.786;9.996;2023-10-08T15:20:10;4.10;;;3.90;;
12880;SDS011;6508;53.786;9.996;2023-10-08T15:22:41;4.13;;;3.92;;
12880;SDS011;6508;53.786;9.996;2023-10-08T15:25:09;4.10;;;3.70;;
12880;SDS011;6508;53.786;9.996;2023-10-08T15:27:38;4.10;;;4.00;;
12880;SDS011;6508;53.786;9.996;2023-10-08T15:30:07;3.42;;;3.33;;
12880;SDS011;6508;53.786;9.996;2023-10-08T15:32:38;3.53;;;3.33;;
12880;SDS011;6508;53.786;9.996;2023-10-08T15:35:08;3.58;;;3.28;;
12880;SDS011;6508;53.786;9.996;2023-10-08T15:37:38;5.63;;;3.40;;